createdAt,value
2018-07-11T00:00:59.621Z,93848.81
2018-07-11T00:03:32.930Z,93840.93
2018-07-11T00:06:00.621Z,93840.70
2018-07-11T00:08:28.313Z,93834.39
2018-07-11T00:10:56.004Z,93834.82
2018-07-11T00:13:23.710Z,93835.43
2018-07-11T00:15:51.397Z,93829.86
2018-07-11T00:18:19.210Z,93832.59
2018-07-11T00:20:46.953Z,93832.74
2018-07-11T00:23:14.970Z,93823.17
2018-07-11T00:25:42.765Z,93825.62
2018-07-11T00:28:10.615Z,93824.00
2018-07-11T00:30:38.353Z,93823.20
2018-07-11T00:33:06.092Z,93824.45
2018-07-11T00:35:33.835Z,93821.64
2018-07-11T00:38:01.611Z,93818.83
2018-07-11T00:40:29.346Z,93815.89
2018-07-11T00:42:57.114Z,93812.96
2018-07-11T00:45:24.854Z,93813.19
2018-07-11T00:47:52.591Z,93814.39
2018-07-11T00:50:20.454Z,93815.58
2018-07-11T00:52:48.477Z,93817.82
2018-07-11T00:55:16.214Z,93809.92
2018-07-11T00:57:43.970Z,93816.27
2018-07-11T01:00:11.713Z,93809.70
2018-07-11T01:02:39.509Z,93811.75
2018-07-11T01:05:07.255Z,93810.13
2018-07-11T01:07:35.015Z,93820.19
2018-07-11T01:10:02.784Z,93816.66
2018-07-11T01:12:30.462Z,93812.42
2018-07-11T01:14:58.232Z,93819.11
2018-07-11T01:17:31.593Z,93819.11
2018-07-11T01:19:59.965Z,93817.41
2018-07-11T01:22:27.652Z,93822.36
2018-07-11T01:24:55.360Z,93821.53
2018-07-11T01:27:23.102Z,93823.45
2018-07-11T01:29:51.026Z,93816.48
2018-07-11T01:32:18.751Z,93819.87
2018-07-11T01:34:46.430Z,93815.28
2018-07-11T01:37:14.125Z,93810.72
2018-07-11T01:39:41.818Z,93812.22
2018-07-11T01:42:09.811Z,93812.41
2018-07-11T01:44:37.523Z,93817.66
2018-07-11T01:47:05.270Z,93815.62
2018-07-11T01:49:33.022Z,93809.63
2018-07-11T01:52:06.390Z,93814.38
2018-07-11T01:54:34.141Z,93814.20
2018-07-11T01:57:02.090Z,93809.95
2018-07-11T01:59:31.390Z,93816.31
2018-07-11T02:01:59.132Z,93808.02
2018-07-11T02:04:26.881Z,93811.96
2018-07-11T02:06:54.929Z,93810.95
2018-07-11T02:09:22.982Z,93809.16
2018-07-11T02:11:50.705Z,93811.78
2018-07-11T02:14:18.451Z,93812.30
2018-07-11T02:16:46.191Z,93805.73
2018-07-11T02:19:14.033Z,93804.91
2018-07-11T02:21:41.867Z,93800.20
2018-07-11T02:24:09.730Z,93798.46
2018-07-11T02:26:37.479Z,93795.64
2018-07-11T02:29:05.156Z,93799.78
2018-07-11T02:31:33.280Z,93803.41
2018-07-11T02:34:01.015Z,93799.99
2018-07-11T02:36:28.727Z,93805.25
2018-07-11T02:38:56.454Z,93803.20
2018-07-11T02:41:24.212Z,93806.24
2018-07-11T02:43:51.945Z,93801.89
2018-07-11T02:46:24.245Z,93802.16
2018-07-11T02:48:52.022Z,93806.24
2018-07-11T02:51:20.083Z,93804.72
2018-07-11T02:53:47.821Z,93803.52
2018-07-11T02:56:15.568Z,93804.62
2018-07-11T02:58:43.310Z,93795.84
2018-07-11T03:01:10.994Z,93797.58
2018-07-11T03:03:39.170Z,93793.34
2018-07-11T03:06:06.826Z,93793.95
2018-07-11T03:08:35.318Z,93790.95
2018-07-11T03:11:03.770Z,93791.53
2018-07-11T03:13:31.534Z,93789.32
2018-07-11T03:15:59.260Z,93790.53
2018-07-11T03:18:26.989Z,93790.15
2018-07-11T03:20:54.760Z,93792.67
2018-07-11T03:23:22.474Z,93798.63
2018-07-11T03:25:50.826Z,93795.20
2018-07-11T03:28:18.506Z,93794.78
2018-07-11T03:30:46.202Z,93791.95
2018-07-11T03:33:14.498Z,93795.99
2018-07-11T03:35:42.394Z,93794.55
2018-07-11T03:38:10.146Z,93792.74
2018-07-11T03:40:37.813Z,93792.64
2018-07-11T03:43:05.802Z,93792.33
2018-07-11T03:45:33.550Z,93799.83
2018-07-11T03:48:01.252Z,93794.78
2018-07-11T03:50:28.929Z,93794.40
2018-07-11T03:52:56.850Z,93798.03
2018-07-11T03:55:24.516Z,93798.03
2018-07-11T03:57:52.204Z,93796.42
2018-07-11T04:00:19.979Z,93793.57
2018-07-11T04:02:47.667Z,93788.31
2018-07-11T04:05:15.367Z,93793.80
2018-07-11T04:07:43.068Z,93799.65
2018-07-11T04:10:10.726Z,93799.39
2018-07-11T04:12:38.391Z,93802.09
2018-07-11T04:15:06.098Z,93799.91
2018-07-11T04:17:33.778Z,93794.46
2018-07-11T04:20:01.484Z,93800.92
2018-07-11T04:22:29.192Z,93794.23
2018-07-11T04:24:57.362Z,93795.05
2018-07-11T04:27:25.143Z,93798.30
2018-07-11T04:29:52.921Z,93803.83
2018-07-11T04:32:20.699Z,93803.33
2018-07-11T04:34:48.462Z,93798.07
2018-07-11T04:37:16.241Z,93799.30
2018-07-11T04:39:44.007Z,93798.69
2018-07-11T04:42:11.654Z,93798.68
2018-07-11T04:44:39.418Z,93805.65
2018-07-11T04:47:07.139Z,93807.95
2018-07-11T04:49:34.859Z,93801.56
2018-07-11T04:52:02.639Z,93803.88
2018-07-11T04:54:30.425Z,93799.92
2018-07-11T04:56:58.160Z,93803.43
2018-07-11T04:59:25.916Z,93807.05
2018-07-11T05:01:53.586Z,93801.58
2018-07-11T05:04:21.290Z,93803.58
2018-07-11T05:06:48.942Z,93802.14
2018-07-11T05:09:16.906Z,93803.55
2018-07-11T05:11:44.702Z,93807.56
2018-07-11T05:14:12.407Z,93807.47
2018-07-11T05:16:40.406Z,93805.89
2018-07-11T05:19:08.094Z,93806.67
2018-07-11T05:21:35.782Z,93813.61
2018-07-11T05:24:03.760Z,93811.72
2018-07-11T05:26:31.476Z,93810.60
2018-07-11T05:28:59.130Z,93807.73
2018-07-11T05:31:27.651Z,93804.34
2018-07-11T05:33:56.508Z,93807.73
2018-07-11T05:36:24.273Z,93803.80
2018-07-11T05:38:51.970Z,93811.47
2018-07-11T05:41:19.894Z,93809.46
2018-07-11T05:43:47.550Z,93805.22
2018-07-11T05:46:15.219Z,93806.30
2018-07-11T05:48:44.210Z,93797.11
2018-07-11T05:51:12.231Z,93795.11
2018-07-11T05:53:39.954Z,93796.22
2018-07-11T05:56:07.651Z,93793.98
2018-07-11T05:58:36.382Z,93794.04
2018-07-11T06:01:04.082Z,93796.11
2018-07-11T06:03:31.737Z,93796.60
2018-07-11T06:05:59.459Z,93788.39
2018-07-11T06:08:27.486Z,93786.34
2018-07-11T06:10:55.185Z,93788.60
2018-07-11T06:13:22.931Z,93794.72
2018-07-11T06:15:51.151Z,93796.11
2018-07-11T06:18:19.424Z,93803.22
2018-07-11T06:20:47.187Z,93803.66
2018-07-11T06:23:15.235Z,93803.20
2018-07-11T06:25:43.022Z,93815.96
2018-07-11T06:28:10.703Z,93813.32
2018-07-11T06:30:38.416Z,93810.67
2018-07-11T06:33:06.148Z,93819.28
2018-07-11T06:35:33.862Z,93815.09
2018-07-11T06:38:01.600Z,93821.55
2018-07-11T06:40:30.350Z,93825.56
2018-07-11T06:42:58.106Z,93821.52
2018-07-11T06:45:25.825Z,93828.74
2018-07-11T06:47:53.558Z,93837.42
2018-07-11T06:50:21.222Z,93839.09
2018-07-11T06:52:48.919Z,93832.69
2018-07-11T06:55:16.585Z,93833.22
2018-07-11T06:57:44.252Z,93837.05
2018-07-11T07:00:11.976Z,93835.34
2018-07-11T07:02:39.922Z,93841.35
2018-07-11T07:05:07.593Z,93840.17
2018-07-11T07:07:35.295Z,93847.29
2018-07-11T07:10:03.009Z,93844.47
2018-07-11T07:12:30.714Z,93835.94
2018-07-11T07:14:58.404Z,93847.88
2018-07-11T07:17:26.087Z,93839.95
2018-07-11T07:19:53.787Z,93839.95
2018-07-11T07:22:21.483Z,93845.23
2018-07-11T07:24:50.294Z,93844.93
2018-07-11T07:27:17.988Z,93845.61
2018-07-11T07:29:45.741Z,93853.43
2018-07-11T07:32:13.521Z,93849.63
2018-07-11T07:34:41.519Z,93848.14
2018-07-11T07:37:09.244Z,93848.80
2018-07-11T07:39:36.960Z,93843.34
2018-07-11T07:42:04.668Z,93840.39
2018-07-11T07:44:32.387Z,93844.11
2018-07-11T07:47:00.950Z,93846.61
2018-07-11T07:49:29.639Z,93846.25
2018-07-11T07:51:57.870Z,93846.84
2018-07-11T07:54:25.862Z,93845.03
2018-07-11T07:56:53.650Z,93846.45
2018-07-11T07:59:21.906Z,93831.56
2018-07-11T08:01:49.902Z,93828.22
2018-07-11T08:04:17.630Z,93829.27
2018-07-11T08:06:45.466Z,93824.60
2018-07-11T08:09:13.150Z,93830.06
2018-07-11T08:11:40.950Z,93826.38
2018-07-11T08:14:08.670Z,93824.22
2018-07-11T08:16:36.354Z,93823.28
2018-07-11T08:19:04.364Z,93826.94
2018-07-11T08:21:32.109Z,93825.62
2018-07-11T08:24:05.452Z,93820.09
2018-07-11T08:26:38.853Z,93825.62
2018-07-11T08:31:20.667Z,93830.28
2018-07-11T08:35:58.476Z,93834.02
2018-07-11T08:38:32.661Z,93841.34
2018-07-11T08:41:08.499Z,93841.69
2018-07-11T08:44:41.303Z,93839.50
2018-07-11T08:49:23.062Z,93836.59
2018-07-11T08:51:55.443Z,93834.41
2018-07-11T08:55:31.102Z,93827.19
2018-07-11T08:58:03.339Z,93833.50
2018-07-11T09:01:05.016Z,93830.48
2018-07-11T09:03:38.246Z,93834.61
2018-07-11T09:08:14.333Z,93841.31
2018-07-11T09:10:48.142Z,93843.30
2018-07-11T09:13:22.297Z,93840.84
2018-07-11T09:15:55.047Z,93845.17
2018-07-11T09:18:27.918Z,93845.96
2018-07-11T09:23:09.615Z,93843.64
2018-07-11T09:25:37.301Z,93848.20
2018-07-11T09:28:05.000Z,93851.06
2018-07-11T09:30:32.813Z,93855.29
2018-07-11T09:33:00.521Z,93852.91
2018-07-11T09:35:28.256Z,93850.18
2018-07-11T09:37:55.965Z,93850.53
2018-07-11T09:40:23.701Z,93854.45
2018-07-11T09:42:51.760Z,93852.55
2018-07-11T09:45:19.602Z,93845.45
2018-07-11T09:47:47.344Z,93842.75
2018-07-11T09:50:15.338Z,93846.73
2018-07-11T09:52:43.031Z,93856.94
2018-07-11T09:55:10.701Z,93857.66
2018-07-11T09:57:38.536Z,93864.25
2018-07-11T10:00:06.672Z,93860.95
2018-07-11T10:02:34.561Z,93867.33
2018-07-11T10:05:02.388Z,93870.44
2018-07-11T10:07:30.156Z,93869.44
2018-07-11T10:09:57.925Z,93869.48
2018-07-11T10:12:25.644Z,93869.88
2018-07-11T10:14:53.382Z,93871.60
2018-07-11T10:17:21.131Z,93875.73
2018-07-11T10:19:48.861Z,93871.09
2018-07-11T10:22:16.614Z,93868.93
2018-07-11T10:24:44.367Z,93866.59
2018-07-11T10:27:12.089Z,93868.28
2018-07-11T10:29:39.815Z,93861.67
2018-07-11T10:32:07.583Z,93854.23
2018-07-11T10:34:35.385Z,93858.30
2018-07-11T10:37:03.943Z,93858.83
2018-07-11T10:39:31.629Z,93865.06
2018-07-11T10:41:59.577Z,93863.38
2018-07-11T10:44:27.275Z,93863.84
2018-07-11T10:47:27.012Z,93870.63
2018-07-11T10:49:54.749Z,93866.76
2018-07-11T10:52:22.462Z,93864.81
2018-07-11T10:54:50.199Z,93858.00
2018-07-11T10:57:18.064Z,93861.99
2018-07-11T10:59:45.808Z,93863.32
2018-07-11T11:02:17.615Z,93865.48
2018-07-11T11:04:45.377Z,93864.64
2018-07-11T11:07:13.049Z,93868.81
2018-07-11T11:09:40.840Z,93862.11
2018-07-11T11:12:08.569Z,93865.34
2018-07-11T11:14:36.342Z,93862.55
2018-07-11T11:17:03.982Z,93865.92
2018-07-11T11:19:31.707Z,93868.53
2018-07-11T11:22:00.174Z,93862.39
2018-07-11T11:24:27.958Z,93868.88
2018-07-11T11:26:55.648Z,93864.08
2018-07-11T11:29:23.396Z,93861.89
2018-07-11T11:31:51.140Z,93853.55
2018-07-11T11:34:19.273Z,93860.20
2018-07-11T11:36:47.026Z,93857.31
2018-07-11T11:39:14.683Z,93852.14
2018-07-11T11:41:42.522Z,93847.88
2018-07-11T11:44:10.182Z,93854.97
2018-07-11T11:46:37.895Z,93853.49
2018-07-11T11:49:05.616Z,93857.64
2018-07-11T11:51:33.382Z,93847.54
2018-07-11T11:54:01.075Z,93854.05
2018-07-11T11:56:28.778Z,93858.86
2018-07-11T11:58:56.525Z,93858.23
2018-07-11T12:01:24.470Z,93858.56
2018-07-11T12:03:52.233Z,93869.39
2018-07-11T12:06:19.939Z,93871.31
2018-07-11T12:08:47.684Z,93870.20
2018-07-11T12:11:15.382Z,93867.16
2018-07-11T12:13:43.106Z,93875.69
2018-07-11T12:16:10.848Z,93874.98
2018-07-11T12:18:38.562Z,93874.91
2018-07-11T12:21:06.358Z,93875.66
2018-07-11T12:23:34.034Z,93871.45
2018-07-11T12:26:05.951Z,93870.67
2018-07-11T12:28:33.730Z,93872.00
2018-07-11T12:31:01.850Z,93877.40
2018-07-11T12:33:29.628Z,93875.27
2018-07-11T12:35:57.804Z,93877.05
2018-07-11T12:38:25.561Z,93874.16
2018-07-11T12:40:53.303Z,93867.45
2018-07-11T12:43:21.071Z,93875.33
2018-07-11T12:45:48.856Z,93873.41
2018-07-11T12:48:22.500Z,93875.48
2018-07-11T12:50:51.540Z,93875.20
2018-07-11T12:53:19.386Z,93873.87
2018-07-11T12:55:47.339Z,93871.13
2018-07-11T12:58:16.054Z,93871.03
2018-07-11T13:00:43.831Z,93872.06
2018-07-11T13:03:11.654Z,93868.11
2018-07-11T13:05:39.434Z,93873.22
2018-07-11T13:08:07.214Z,93869.27
2018-07-11T13:10:34.918Z,93873.01
2018-07-11T13:13:02.675Z,93868.03
2018-07-11T13:15:30.426Z,93870.48
2018-07-11T13:17:58.223Z,93877.86
2018-07-11T13:20:25.917Z,93879.81
2018-07-11T13:22:53.620Z,93879.47
2018-07-11T13:25:21.758Z,93876.42
2018-07-11T13:27:49.522Z,93879.69
2018-07-11T13:30:17.238Z,93881.61
2018-07-11T13:32:45.044Z,93877.71
2018-07-11T13:35:12.846Z,93885.33
2018-07-11T13:37:40.557Z,93883.80
2018-07-11T13:40:08.281Z,93882.55
2018-07-11T13:42:36.289Z,93884.53
2018-07-11T13:45:04.179Z,93885.38
2018-07-11T13:47:31.903Z,93885.44
2018-07-11T13:49:59.647Z,93880.58
2018-07-11T13:52:27.517Z,93883.00
2018-07-11T13:54:55.438Z,93886.55
2018-07-11T13:57:23.530Z,93888.70
2018-07-11T13:59:51.290Z,93874.55
2018-07-11T14:02:19.180Z,93872.19
2018-07-11T14:04:47.159Z,93879.19
2018-07-11T14:07:14.891Z,93869.05
2018-07-11T14:09:42.606Z,93878.58
2018-07-11T14:12:10.414Z,93888.36
2018-07-11T14:14:38.275Z,93883.25
2018-07-11T14:17:06.194Z,93872.41
2018-07-11T14:19:33.954Z,93881.41
2018-07-11T14:22:02.063Z,93874.88
2018-07-11T14:24:29.837Z,93872.79
2018-07-11T14:26:57.655Z,93877.54
2018-07-11T14:29:27.205Z,93869.84
2018-07-11T14:31:55.935Z,93872.82
2018-07-11T14:34:23.710Z,93869.58
2018-07-11T14:36:52.297Z,93867.13
2018-07-11T14:39:19.989Z,93870.06
2018-07-11T14:41:47.771Z,93869.25
2018-07-11T14:44:16.318Z,93868.66
2018-07-11T14:46:44.082Z,93862.62
2018-07-11T14:49:14.233Z,93866.76
2018-07-11T14:51:42.035Z,93869.64
2018-07-11T14:54:09.854Z,93868.88
2018-07-11T14:56:37.613Z,93868.46
2018-07-11T14:59:05.485Z,93869.23
2018-07-11T15:01:33.270Z,93867.69
2018-07-11T15:04:02.187Z,93867.44
2018-07-11T15:06:29.887Z,93866.98
2018-07-11T15:08:57.738Z,93863.59
2018-07-11T15:11:25.330Z,93868.71
2018-07-11T15:13:53.398Z,93868.03
2018-07-11T15:16:21.096Z,93863.62
2018-07-11T15:18:49.392Z,93869.94
2018-07-11T15:21:17.510Z,93859.38
2018-07-11T15:23:45.260Z,93871.02
2018-07-11T15:26:13.002Z,93872.56
2018-07-11T15:28:41.130Z,93877.25
2018-07-11T15:31:08.868Z,93873.78
2018-07-11T15:33:36.686Z,93869.98
2018-07-11T15:36:04.491Z,93867.08
2018-07-11T15:38:32.231Z,93869.25
2018-07-11T15:41:00.690Z,93863.67
2018-07-11T15:43:29.125Z,93866.17
2018-07-11T15:45:57.301Z,93867.31
2018-07-11T15:48:25.371Z,93870.30
2018-07-11T15:50:53.564Z,93870.42
2018-07-11T15:53:21.993Z,93864.59
2018-07-11T15:55:50.214Z,93868.39
2018-07-11T15:58:18.990Z,93869.80
2018-07-11T16:00:47.119Z,93868.25
2018-07-11T16:03:14.932Z,93873.73
2018-07-11T16:05:44.102Z,93872.37
2018-07-11T16:08:15.776Z,93877.65
2018-07-11T16:10:48.311Z,93876.34
2018-07-11T16:13:16.089Z,93875.60
2018-07-11T16:15:44.518Z,93878.45
2018-07-11T16:18:12.285Z,93879.23
2018-07-11T16:20:40.111Z,93876.36
2018-07-11T16:23:08.186Z,93878.22
2018-07-11T16:25:36.683Z,93879.80
2018-07-11T16:28:05.249Z,93889.77
2018-07-11T16:30:33.006Z,93887.54
2018-07-11T16:33:01.174Z,93897.39
2018-07-11T16:35:28.970Z,93891.75
2018-07-11T16:37:56.771Z,93889.73
2018-07-11T16:40:24.871Z,93892.46
2018-07-11T16:42:52.888Z,93898.59
2018-07-11T16:45:21.151Z,93899.38
2018-07-11T16:47:48.914Z,93900.62
2018-07-11T16:50:17.279Z,93902.48
2018-07-11T16:52:45.173Z,93903.90
2018-07-11T16:55:12.983Z,93908.17
2018-07-11T16:57:41.793Z,93908.50
2018-07-11T17:00:10.011Z,93904.31
2018-07-11T17:02:38.767Z,93904.50
2018-07-11T17:05:07.722Z,93908.27
2018-07-11T17:07:40.432Z,93903.27
2018-07-11T17:10:08.276Z,93905.45
2018-07-11T17:12:36.725Z,93908.88
2018-07-11T17:15:04.510Z,93909.45
2018-07-11T17:17:32.623Z,93906.83
2018-07-11T17:20:03.104Z,93912.06
2018-07-11T17:22:32.401Z,93915.36
2018-07-11T17:25:01.407Z,93915.48
2018-07-11T17:27:29.227Z,93914.86
2018-07-11T17:30:00.028Z,93913.78
2018-07-11T17:32:28.356Z,93910.48
2018-07-11T17:34:56.107Z,93916.91
2018-07-11T17:37:25.975Z,93912.41
2018-07-11T17:39:56.882Z,93919.99
2018-07-11T17:42:28.728Z,93924.27
2018-07-11T17:45:07.593Z,93923.40
2018-07-11T17:48:40.686Z,93920.05
2018-07-11T17:51:16.936Z,93927.91
2018-07-11T17:53:48.094Z,93930.81
2018-07-11T17:56:15.876Z,93929.59
2018-07-11T17:58:59.344Z,93927.73
2018-07-11T18:01:32.643Z,93920.69
2018-07-11T18:04:37.529Z,93920.91
2018-07-11T18:07:07.002Z,93922.09
2018-07-11T18:09:38.761Z,93926.23
2018-07-11T18:12:10.894Z,93924.63
2018-07-11T18:14:43.111Z,93931.02
2018-07-11T18:17:12.431Z,93929.77
2018-07-11T18:19:44.797Z,93927.72
2018-07-11T18:22:20.404Z,93927.94
2018-07-11T18:24:53.771Z,93932.01
2018-07-11T18:28:24.853Z,93934.20
2018-07-11T18:31:09.287Z,93935.40
2018-07-11T18:35:45.361Z,93937.41
2018-07-11T18:38:19.914Z,93935.24
2018-07-11T18:40:55.170Z,93938.16
2018-07-11T18:43:28.580Z,93936.13
2018-07-11T18:46:00.684Z,93937.00
2018-07-11T18:48:34.017Z,93939.45
2018-07-11T18:51:06.326Z,93939.91
2018-07-11T18:53:39.667Z,93944.97
2018-07-11T18:56:12.617Z,93940.13
2018-07-11T18:58:48.824Z,93944.19
2018-07-11T19:03:28.913Z,93949.30
2018-07-11T19:07:02.563Z,93947.32
2018-07-11T19:09:36.105Z,93948.37
2018-07-11T19:13:09.052Z,93949.05
2018-07-11T19:15:39.294Z,93954.78
2018-07-11T19:18:08.917Z,93954.13
2018-07-11T19:20:37.061Z,93952.70
2018-07-11T19:23:10.560Z,93961.30
2018-07-11T19:27:47.226Z,93954.17
2018-07-11T19:30:26.030Z,93965.58
2018-07-11T19:33:01.298Z,93964.30
2018-07-11T19:36:33.509Z,93969.39
2018-07-11T19:39:05.825Z,93966.40
2018-07-11T19:41:45.702Z,93973.00
2018-07-11T19:44:19.044Z,93972.09
2018-07-11T19:46:50.727Z,93975.53
2018-07-11T19:49:21.407Z,93985.08
2018-07-11T19:51:54.925Z,93983.70
2018-07-11T19:55:29.581Z,93978.50
2018-07-11T19:57:57.391Z,93976.75
2018-07-11T20:00:25.161Z,93976.78
2018-07-11T20:02:52.998Z,93980.47
2018-07-11T20:05:20.787Z,93979.02
2018-07-11T20:07:48.550Z,93985.11
2018-07-11T20:10:16.539Z,93981.95
2018-07-11T20:12:44.453Z,93978.86
2018-07-11T20:15:12.183Z,93985.75
2018-07-11T20:17:39.887Z,93984.25
2018-07-11T20:20:07.602Z,93983.20
2018-07-11T20:22:35.389Z,93976.02
2018-07-11T20:25:03.344Z,93983.14
2018-07-11T20:27:31.090Z,93984.02
2018-07-11T20:29:58.828Z,93983.19
2018-07-11T20:32:26.625Z,93976.09
2018-07-11T20:34:54.380Z,93971.72
2018-07-11T20:37:22.120Z,93980.35
2018-07-11T20:39:49.868Z,93975.88
2018-07-11T20:42:17.615Z,93979.87
2018-07-11T20:44:45.420Z,93978.86
2018-07-11T20:47:13.164Z,93985.00
2018-07-11T20:49:40.940Z,93987.23
2018-07-11T20:52:08.715Z,93990.45
2018-07-11T20:54:37.158Z,93991.02
2018-07-11T20:57:04.858Z,93989.38
2018-07-11T20:59:38.155Z,93989.30
2018-07-11T21:02:11.479Z,93996.92
2018-07-11T21:05:16.646Z,93991.30
2018-07-11T21:08:02.131Z,93997.66
2018-07-11T21:12:42.564Z,93998.44
2018-07-11T21:17:20.861Z,93995.02
2018-07-11T21:19:48.597Z,94004.89
2018-07-11T21:22:16.288Z,94004.80
2018-07-11T21:24:44.006Z,94006.52
2018-07-11T21:27:11.698Z,93997.23
2018-07-11T21:29:39.356Z,93997.29
2018-07-11T21:32:07.097Z,93997.86
2018-07-11T21:34:34.803Z,93996.13
2018-07-11T21:37:02.515Z,94004.80
2018-07-11T21:39:30.213Z,94002.83
2018-07-11T21:41:57.866Z,94000.35
2018-07-11T21:44:25.565Z,93998.59
2018-07-11T21:46:53.268Z,94000.22
2018-07-11T21:49:20.921Z,93995.38
2018-07-11T21:51:48.846Z,93991.68
2018-07-11T21:54:16.622Z,93999.98
2018-07-11T21:56:44.319Z,94000.41
2018-07-11T21:59:12.030Z,94000.25
2018-07-11T22:01:40.582Z,93998.82
2018-07-11T22:04:09.591Z,93995.99
2018-07-11T22:06:37.328Z,93999.86
2018-07-11T22:09:05.303Z,94004.09
2018-07-11T22:11:33.090Z,94004.52
2018-07-11T22:14:00.746Z,94010.48
2018-07-11T22:16:28.463Z,94009.56
2018-07-11T22:18:56.111Z,94007.37
2018-07-11T22:21:24.362Z,94009.36
2018-07-11T22:23:51.358Z,94006.33
2018-07-11T22:26:18.358Z,94000.05
2018-07-11T22:28:45.384Z,94000.45
2018-07-11T22:31:12.433Z,94007.73
2018-07-11T22:33:39.462Z,94001.08
2018-07-11T22:36:07.072Z,93999.45
2018-07-11T22:38:34.057Z,93995.09
2018-07-11T22:41:01.082Z,93993.86
2018-07-11T22:43:28.138Z,93995.17
2018-07-11T22:45:55.172Z,93994.37
2018-07-11T22:48:22.219Z,93989.02
2018-07-11T22:50:49.245Z,93990.64
2018-07-11T22:53:16.288Z,93989.22
2018-07-11T22:55:43.485Z,93990.94
2018-07-11T22:58:10.498Z,93983.23
2018-07-11T23:00:37.508Z,93988.05
2018-07-11T23:03:04.538Z,93987.25
2018-07-11T23:05:31.821Z,93986.96
2018-07-11T23:07:58.835Z,93988.16
2018-07-11T23:10:25.877Z,93989.19
2018-07-11T23:12:52.927Z,93995.36
2018-07-11T23:15:19.978Z,93993.31
2018-07-11T23:17:47.327Z,93997.98
2018-07-11T23:20:14.326Z,93993.10
2018-07-11T23:22:41.356Z,93985.81
2018-07-11T23:25:08.510Z,93985.36
2018-07-11T23:27:35.525Z,93988.11
2018-07-11T23:30:02.527Z,93988.53
2018-07-11T23:32:29.543Z,93985.36
2018-07-11T23:34:56.565Z,93981.11
2018-07-11T23:37:23.612Z,93975.02
2018-07-11T23:39:50.624Z,93977.48
2018-07-11T23:42:17.634Z,93970.86
2018-07-11T23:44:44.654Z,93969.06
2018-07-11T23:47:11.650Z,93969.33
2018-07-11T23:49:38.642Z,93966.20
2018-07-11T23:52:05.662Z,93971.17
2018-07-11T23:54:32.704Z,93965.95
2018-07-11T23:56:59.734Z,93973.39
2018-07-11T23:59:26.741Z,93971.33
